Flight Track Log - Related Links

Times and Time Zones

All times are in EDT time to prevent confusion due to time zone crossing. See the ASQ4976 flight status page for this flight to view local times or setup timezone preferences in your user account.


Time Position Orientation Groundspeed Altitude Reporting Facility
EDT Latitude Longitude Course Direction KTS MPH feet Rate Location/Type
Mon 06:09:27 PM 35.2347 -80.9392 24° Northeast 163 188 1,500  Level Atlanta Center
Mon 06:10:53 PM 35.3006 -80.9036 24° Northeast 210 242 4,200 1,952 Climbing Atlanta Center
Mon 06:11:33 PM 35.3117 -80.8472 76° East 231 266 5,600 2,040 Climbing Atlanta Center
Mon 06:12:33 PM 35.3261 -80.7625 78° East 268 308 7,600 1,600 Climbing Atlanta Center
Mon 06:13:33 PM 35.3403 -80.6728 79° East 286 329 8,800 1,700 Climbing Atlanta Center
Mon 06:14:33 PM 35.3586 -80.5753 77° East 291 335 11,000 1,550 Climbing Atlanta Center
Mon 06:15:33 PM 35.3761 -80.4653 79° East 308 354 11,900 1,300 Climbing Atlanta Center
Mon 06:16:33 PM 35.3978 -80.3444 78° East 344 396 13,600 1,600 Climbing Atlanta Center
Mon 06:17:33 PM 35.4169 -80.2214 79° East 362 417 15,100 1,543 Climbing Atlanta Center
Mon 06:18:53 PM 35.4506 -80.0669 75° East 385 443 17,200 1,532 Climbing Washington Center
Mon 06:19:54 PM 35.4842 -79.9464 71° East 378 435 18,700 1,550 Climbing Washington Center
Mon 06:20:53 PM 35.5158 -79.8206 73° East 378 435 20,300 1,361 Climbing Washington Center
Mon 06:21:53 PM 35.5475 -79.6944 73° East 378 435 21,400 1,100 Climbing Washington Center
Mon 06:22:53 PM 35.6019 -79.5619 63° Northeast 389 448 22,500 1,091 Climbing Washington Center
Mon 06:23:54 PM 35.6717 -79.4733 46° Northeast 389 448 23,600 1,200 Climbing Washington Center
Mon 06:24:53 PM 35.7544 -79.3622 47° Northeast 395 455 24,900 1,261 Climbing Washington Center
Mon 06:25:53 PM 35.8347 -79.2636 45° Northeast 395 455 26,100 1,091 Climbing Washington Center
Mon 06:26:54 PM 35.9108 -79.1644 47° Northeast 400 460 27,100 942 Climbing Washington Center
Mon 06:27:54 PM 35.9911 -79.0603 46° Northeast 406 467 28,000 843 Climbing Washington Center
Mon 06:28:55 PM 36.0714 -78.9558 46° Northeast 411 473 28,800 958 Climbing Washington Center
Mon 06:29:53 PM 36.1514 -78.8511 47° Northeast 411 473 29,900 1,150 Climbing Washington Center
Mon 06:30:55 PM 36.2314 -78.7489 46° Northeast 411 473 31,100 1,131 Climbing Washington Center
Mon 06:31:55 PM 36.3111 -78.6439 47° Northeast 411 473 32,200 1,119 Climbing Washington Center
Mon 06:32:53 PM 36.3889 -78.5411 47° Northeast 411 473 33,300 1,059 Climbing Washington Center
Mon 06:33:54 PM 36.4664 -78.4408 46° Northeast 411 473 34,300 793 Climbing Washington Center
Mon 06:34:54 PM 36.5439 -78.3375 47° Northeast 406 467 34,900 545 Climbing Washington Center
Mon 06:35:55 PM 36.6236 -78.2317 47° Northeast 411 473 35,400 605 Climbing Washington Center
Mon 06:36:53 PM 36.6967 -78.1281 49° Northeast 411 473 36,100 756 Climbing Washington Center
Mon 06:37:54 PM 36.7803 -78.0269 44° Northeast 411 473 36,900 439 Climbing Washington Center
Mon 06:38:56 PM 36.8719 -77.9286 41° Northeast 411 473 37,000 50 Climbing Washington Center
Mon 06:39:53 PM 36.9633 -77.8325 40° Northeast 422 486 37,000  Level Washington Center
Mon 06:40:54 PM 37.0569 -77.7339 40° Northeast 435 501 37,000  Level Washington Center
Mon 06:41:54 PM 37.1547 -77.6297 40° Northeast 440 506 37,000  Level Washington Center
Mon 06:42:53 PM 37.2503 -77.5306 40° Northeast 440 506 37,000  Level Washington Center
Mon 06:43:53 PM 37.3458 -77.4308 40° Northeast 440 506 37,000  Level Washington Center
Mon 06:44:53 PM 37.4389 -77.3311 40° Northeast 440 506 37,000  Level Washington Center
Mon 06:45:54 PM 37.5364 -77.2314 39° Northeast 440 506 37,000  Level Washington Center
Mon 06:46:55 PM 37.6275 -77.1283 42° Northeast 440 506 37,000  Level Washington Center
Mon 06:47:55 PM 37.7183 -77.0253 42° Northeast 440 506 37,000  Level Washington Center
Mon 06:48:53 PM 37.8092 -76.9269 41° Northeast 434 499 37,000  Level Washington Center
Mon 06:49:54 PM 37.9000 -76.8258 41° Northeast 434 499 37,000  Level Washington Center
Mon 06:50:55 PM 37.9928 -76.7275 40° Northeast 434 499 37,000  Level Washington Center
Mon 06:51:56 PM 38.0833 -76.6258 41° Northeast 434 499 37,000  Level Washington Center
Mon 06:52:53 PM 38.1758 -76.5242 41° Northeast 434 499 37,000  Level Washington Center
Mon 06:53:53 PM 38.2661 -76.4247 41° Northeast 439 505 37,000  Level Washington Center
Mon 06:54:54 PM 38.3522 -76.3408 37° Northeast 432 497 37,000  Level Washington Center
Mon 06:55:54 PM 38.4550 -76.2386 38° Northeast 427 491 37,000 -496 Level Washington Center
Mon 06:56:55 PM 38.5533 -76.1492 35° Northeast 427 491 36,000 -1,587 Descending Washington Center
Mon 06:57:55 PM 38.6433 -76.0700 34° Northeast 427 491 33,800 -2,281 Descending Washington Center
Mon 06:58:56 PM 38.7417 -75.9828 35° Northeast 432 497 31,400 -2,441 Descending Washington Center
Mon 06:59:53 PM 38.8442 -75.8847 37° Northeast 438 504 29,000 -2,237 Descending Washington Center
Mon 07:00:54 PM 38.9444 -75.7917 36° Northeast 443 510 27,000 -1,082 Descending Washington Center
Mon 07:01:55 PM 39.0403 -75.7011 36° Northeast 438 504 26,800 -958 Descending Washington Center
Mon 07:02:53 PM 39.1383 -75.6075 37° Northeast 433 498 25,100 -1,475 Descending Washington Center
Mon 07:03:53 PM 39.2406 -75.5111 36° Northeast 439 505 23,900 -1,488 Descending Washington Center
Mon 07:04:54 PM 39.3300 -75.4306 35° Northeast 426 490 22,100 -1,900 Descending Washington Center
Mon 07:05:53 PM 39.4236 -75.3497 34° Northeast 404 465 20,100 -1,563 Descending Washington Center
Mon 07:06:53 PM 39.5131 -75.2686 35° Northeast 398 458 19,000 -541 Descending Washington Center
Mon 07:07:55 PM 39.5983 -75.1903 35° Northeast 388 447 19,000 49 Level Washington Center
Mon 07:08:56 PM 39.6833 -75.1089 36° Northeast 377 434 19,100 -403 Climbing Washington Center
Mon 07:09:54 PM 39.7747 -75.0300 34° Northeast 372 428 18,200 -1,271 Descending Washington Center
Mon 07:10:54 PM 39.8494 -74.9672 33° Northeast 362 417 16,600 -1,785 Descending Washington Center
Mon 07:11:55 PM 39.9364 -74.8797 38° Northeast 357 411 14,600 -1,950 Descending Washington Center
Mon 07:12:54 PM 39.9983 -74.7925 47° Northeast 334 384 12,700 -1,824 Descending Washington Center
Mon 07:14:23 PM 40.0833 -74.6667 49° Northeast 325 374 10,100 -1,047 Descending New York TRACON
Mon 07:15:23 PM 40.1500 -74.5667 49° Northeast 346 398 10,100  Level New York TRACON
Mon 07:16:23 PM 40.2167 -74.4833 44° Northeast 361 415 10,100  Level New York TRACON
Mon 07:17:23 PM 40.2833 -74.3833 49° Northeast 362 417 10,100  Level New York TRACON
Mon 07:18:23 PM 40.3667 -74.3000 37° Northeast 328 377 10,100 -650 Level New York TRACON
Mon 07:19:23 PM 40.4167 -74.2333 45° Northeast 277 319 8,800 -1,632 Descending New York TRACON
Mon 07:20:17 PM 40.4833 -74.1833 30° Northeast 278 320 7,000 -1,947 Descending New York TRACON
Mon 07:21:17 PM 40.5333 -74.1167 45° Northeast 280 322 5,100 -1,450 Descending New York TRACON
Mon 07:22:17 PM 40.6000 -74.0500 37° Northeast 277 319 4,100 -500 Descending New York TRACON
Mon 07:23:17 PM 40.6667 -73.9833 37° Northeast 278 320 4,100  Level New York TRACON
Mon 07:24:23 PM 40.7167 -73.9000 52° Northeast 286 329 4,100  Level New York TRACON
Mon 07:25:23 PM 40.7500 -73.8167 62° Northeast 283 326 4,100 -150 Level New York TRACON
Mon 07:26:23 PM 40.8167 -73.7500 37° Northeast 258 297 3,800 -600 Descending New York TRACON
Mon 07:27:23 PM 40.8500 -73.7500 360° North 205 236 2,900 -950 Descending New York TRACON
Mon 07:28:23 PM 40.8500 -73.8167 270° West 161 185 1,900 -1,050 Descending New York TRACON
Mon 07:29:23 PM 40.8167 -73.8500 217° Southwest 131 151 800 -1,100 Descending New York TRACON

Login

Don't have an account? Register now (free) for customized features, flight alerts, and more!